Mansfield Lahm Regional Airport Mansfield US
ICAO: KMFD
IATA: MFD
Category: Medium
Scheduled Services: No

Elevation: 1297 ft
TransAlt. 18000 ft.

Airport Communications:
APP/DEP:124.2
ATIS:125.3
CTAF:119.8
GND:121.8
HERC COMD POST:29.75
CLEVELAND RDO:122.6
TWR:119.8
UNICOM:122.95

KMFD Zoom In..

If you have problems with the map follow the link
https://www.worldairports.se/pages/airport.php?
ICAO=KMFD

Runways:

(A) RW 05 length 6800 ft width 150 ft
---- / hdg 53

(B) RW 14 length 9001 ft width 150 ft
---- / hdg 143

(C) RW 23 length 6800 ft width 150 ft
---- / hdg 233

(D) RW 32 length 9001 ft width 150 ft
ILS 110.50 / hdg 323

Location; KMFD
Day. 20 / Time. 20.56 Zulu
* Altimeter: 29.84
* Temperature: 04° c. 39.2°f.
* Wind from: 160° Speed 11 kn.
Dewpoint: 04° c.
Visibility: 1 m.
Clouds: Overcast 400 ft.
Conditions: Mist.

KMFD 202056Z 16011KT 1 3/4SM BR OVC004 04/04 A2984 RMK AO2 PRESRR T00390039 $


Wind From 160°
Speed 11 kn.

 
 
jpsmedia.com for Web Design worldairports.se 2019   terms of use